Terminal Aerodrome Forecast
Issued by NWS

Home | Current Version | Previous Version | Text Only | Print | Product List | Glossary Off
Versions: 1 2 3 4 5 6 7 8 9 10 11 12 13 14 15 16 17 18 19 20 21 22 23 24 25 26 27 28 29 30

365
FTUS43 KGLD 121739
TAFMCK
TAF
KMCK 121739Z 1218/1318 08005KT P6SM OVC015
      TEMPO 1218/1220 OVC010
     FM130100 11007KT 6SM BR OVC006
     FM130500 13012G17KT 5SM -FZDZ BR OVC003
     FM131000 13012G17KT 3SM -FZDZ BR OVC003
     FM131500 14014G21KT 2SM BR OVC006=

USA.gov is the U.S. government's official web portal to all federal, state and local government web resources and services.